sensor_id;sensor_type;location;lat;lon;timestamp;pressure;altitude;pressure_sealevel;temperature
25514;BMP180;48128;54.242;10.280;2022-08-23T00:02:24;101379.00;;;17.50
25514;BMP180;48128;54.242;10.280;2022-08-23T00:04:52;101382.00;;;17.50
25514;BMP180;48128;54.242;10.280;2022-08-23T00:07:40;101372.00;;;17.50
25514;BMP180;48128;54.242;10.280;2022-08-23T00:10:09;101372.00;;;17.40
25514;BMP180;48128;54.242;10.280;2022-08-23T00:12:36;101367.00;;;17.40
25514;BMP180;48128;54.242;10.280;2022-08-23T00:15:04;101366.00;;;17.30
25514;BMP180;48128;54.242;10.280;2022-08-23T00:17:32;101374.00;;;17.30
25514;BMP180;48128;54.242;10.280;2022-08-23T00:20:04;101377.00;;;17.30
25514;BMP180;48128;54.242;10.280;2022-08-23T00:22:33;101367.00;;;17.30
25514;BMP180;48128;54.242;10.280;2022-08-23T00:25:00;101375.00;;;17.30
25514;BMP180;48128;54.242;10.280;2022-08-23T00:27:27;101375.00;;;17.20
25514;BMP180;48128;54.242;10.280;2022-08-23T00:29:54;101371.00;;;17.20
25514;BMP180;48128;54.242;10.280;2022-08-23T00:32:31;101374.00;;;17.20
25514;BMP180;48128;54.242;10.280;2022-08-23T00:34:58;101366.00;;;17.20
25514;BMP180;48128;54.242;10.280;2022-08-23T00:37:26;101371.00;;;17.20
25514;BMP180;48128;54.242;10.280;2022-08-23T00:39:54;101368.00;;;17.10
25514;BMP180;48128;54.242;10.280;2022-08-23T00:42:34;101363.00;;;17.10
25514;BMP180;48128;54.242;10.280;2022-08-23T00:45:30;101366.00;;;17.10
25514;BMP180;48128;54.242;10.280;2022-08-23T00:48:17;101363.00;;;17.00
25514;BMP180;48128;54.242;10.280;2022-08-23T00:51:16;101365.00;;;17.00
25514;BMP180;48128;54.242;10.280;2022-08-23T00:53:53;101357.00;;;17.00
25514;BMP180;48128;54.242;10.280;2022-08-23T00:56:23;101363.00;;;16.90
25514;BMP180;48128;54.242;10.280;2022-08-23T00:58:53;101359.00;;;16.80
25514;BMP180;48128;54.242;10.280;2022-08-23T01:01:22;101362.00;;;16.80
25514;BMP180;48128;54.242;10.280;2022-08-23T01:03:52;101370.00;;;16.80
25514;BMP180;48128;54.242;10.280;2022-08-23T01:06:37;101369.00;;;16.80
25514;BMP180;48128;54.242;10.280;2022-08-23T01:09:08;101355.00;;;16.70
25514;BMP180;48128;54.242;10.280;2022-08-23T01:11:47;101364.00;;;16.70
25514;BMP180;48128;54.242;10.280;2022-08-23T01:14:18;101360.00;;;16.60
25514;BMP180;48128;54.242;10.280;2022-08-23T01:16:49;101357.00;;;16.60
25514;BMP180;48128;54.242;10.280;2022-08-23T01:19:29;101356.00;;;16.60
25514;BMP180;48128;54.242;10.280;2022-08-23T01:22:12;101356.00;;;16.60
25514;BMP180;48128;54.242;10.280;2022-08-23T01:24:40;101361.00;;;16.50
25514;BMP180;48128;54.242;10.280;2022-08-23T01:27:28;101349.00;;;16.50
25514;BMP180;48128;54.242;10.280;2022-08-23T01:29:57;101356.00;;;16.40
25514;BMP180;48128;54.242;10.280;2022-08-23T01:32:24;101352.00;;;16.40
25514;BMP180;48128;54.242;10.280;2022-08-23T01:34:51;101356.00;;;16.30
25514;BMP180;48128;54.242;10.280;2022-08-23T01:37:18;101347.00;;;16.30
25514;BMP180;48128;54.242;10.280;2022-08-23T01:39:46;101358.00;;;16.30
25514;BMP180;48128;54.242;10.280;2022-08-23T01:42:13;101362.00;;;16.30
25514;BMP180;48128;54.242;10.280;2022-08-23T01:44:40;101351.00;;;16.30
25514;BMP180;48128;54.242;10.280;2022-08-23T01:47:06;101350.00;;;16.30
25514;BMP180;48128;54.242;10.280;2022-08-23T01:49:33;101357.00;;;16.30
25514;BMP180;48128;54.242;10.280;2022-08-23T01:52:00;101363.00;;;16.30
25514;BMP180;48128;54.242;10.280;2022-08-23T01:54:27;101343.00;;;16.30
25514;BMP180;48128;54.242;10.280;2022-08-23T01:56:55;101348.00;;;16.30
25514;BMP180;48128;54.242;10.280;2022-08-23T01:59:23;101349.00;;;16.30
25514;BMP180;48128;54.242;10.280;2022-08-23T02:01:50;101360.00;;;16.30
25514;BMP180;48128;54.242;10.280;2022-08-23T02:04:18;101355.00;;;16.30
25514;BMP180;48128;54.242;10.280;2022-08-23T02:06:45;101355.00;;;16.30
25514;BMP180;48128;54.242;10.280;2022-08-23T02:09:12;101352.00;;;16.40
25514;BMP180;48128;54.242;10.280;2022-08-23T02:11:44;101361.00;;;16.40
25514;BMP180;48128;54.242;10.280;2022-08-23T02:14:14;101366.00;;;16.40
25514;BMP180;48128;54.242;10.280;2022-08-23T02:16:50;101365.00;;;16.40
25514;BMP180;48128;54.242;10.280;2022-08-23T02:19:33;101364.00;;;16.40
25514;BMP180;48128;54.242;10.280;2022-08-23T02:22:01;101361.00;;;16.40
25514;BMP180;48128;54.242;10.280;2022-08-23T02:24:29;101370.00;;;16.40
25514;BMP180;48128;54.242;10.280;2022-08-23T02:27:01;101351.00;;;16.40
25514;BMP180;48128;54.242;10.280;2022-08-23T02:29:30;101350.00;;;16.40
25514;BMP180;48128;54.242;10.280;2022-08-23T02:32:05;101364.00;;;16.40
25514;BMP180;48128;54.242;10.280;2022-08-23T02:34:32;101362.00;;;16.40
25514;BMP180;48128;54.242;10.280;2022-08-23T02:36:59;101352.00;;;16.40
25514;BMP180;48128;54.242;10.280;2022-08-23T02:39:26;101363.00;;;16.40
25514;BMP180;48128;54.242;10.280;2022-08-23T02:41:53;101351.00;;;16.50
25514;BMP180;48128;54.242;10.280;2022-08-23T02:44:20;101360.00;;;16.50
25514;BMP180;48128;54.242;10.280;2022-08-23T02:46:47;101368.00;;;16.50
25514;BMP180;48128;54.242;10.280;2022-08-23T02:49:15;101357.00;;;16.50
25514;BMP180;48128;54.242;10.280;2022-08-23T02:51:42;101365.00;;;16.50
25514;BMP180;48128;54.242;10.280;2022-08-23T02:54:10;101366.00;;;16.50
25514;BMP180;48128;54.242;10.280;2022-08-23T02:56:37;101367.00;;;16.50
25514;BMP180;48128;54.242;10.280;2022-08-23T02:59:04;101360.00;;;16.50
25514;BMP180;48128;54.242;10.280;2022-08-23T03:01:34;101372.00;;;16.50
25514;BMP180;48128;54.242;10.280;2022-08-23T03:04:02;101371.00;;;16.50
25514;BMP180;48128;54.242;10.280;2022-08-23T03:06:30;101366.00;;;16.50
25514;BMP180;48128;54.242;10.280;2022-08-23T03:08:57;101361.00;;;16.60
25514;BMP180;48128;54.242;10.280;2022-08-23T03:11:25;101368.00;;;16.60
25514;BMP180;48128;54.242;10.280;2022-08-23T03:13:52;101364.00;;;16.50
25514;BMP180;48128;54.242;10.280;2022-08-23T03:16:19;101372.00;;;16.50
25514;BMP180;48128;54.242;10.280;2022-08-23T03:18:47;101368.00;;;16.50
25514;BMP180;48128;54.242;10.280;2022-08-23T03:21:15;101364.00;;;16.50
25514;BMP180;48128;54.242;10.280;2022-08-23T03:23:42;101367.00;;;16.50
25514;BMP180;48128;54.242;10.280;2022-08-23T03:26:10;101376.00;;;16.50
25514;BMP180;48128;54.242;10.280;2022-08-23T03:28:39;101360.00;;;16.50
25514;BMP180;48128;54.242;10.280;2022-08-23T03:31:07;101374.00;;;16.60
25514;BMP180;48128;54.242;10.280;2022-08-23T03:33:34;101379.00;;;16.60
25514;BMP180;48128;54.242;10.280;2022-08-23T03:36:03;101388.00;;;16.60
25514;BMP180;48128;54.242;10.280;2022-08-23T03:38:32;101387.00;;;16.60
25514;BMP180;48128;54.242;10.280;2022-08-23T03:41:00;101384.00;;;16.60
25514;BMP180;48128;54.242;10.280;2022-08-23T03:43:27;101389.00;;;16.60
25514;BMP180;48128;54.242;10.280;2022-08-23T03:45:54;101384.00;;;16.60
25514;BMP180;48128;54.242;10.280;2022-08-23T03:48:21;101393.00;;;16.70
25514;BMP180;48128;54.242;10.280;2022-08-23T03:50:48;101397.00;;;16.70
25514;BMP180;48128;54.242;10.280;2022-08-23T03:53:14;101385.00;;;16.70
25514;BMP180;48128;54.242;10.280;2022-08-23T03:55:42;101388.00;;;16.70
25514;BMP180;48128;54.242;10.280;2022-08-23T03:58:10;101393.00;;;16.70
25514;BMP180;48128;54.242;10.280;2022-08-23T04:00:37;101395.00;;;16.60
25514;BMP180;48128;54.242;10.280;2022-08-23T04:03:04;101407.00;;;16.60
25514;BMP180;48128;54.242;10.280;2022-08-23T04:05:31;101397.00;;;16.60
25514;BMP180;48128;54.242;10.280;2022-08-23T04:07:58;101400.00;;;16.60
25514;BMP180;48128;54.242;10.280;2022-08-23T04:10:28;101403.00;;;16.60
25514;BMP180;48128;54.242;10.280;2022-08-23T04:12:55;101401.00;;;16.60
25514;BMP180;48128;54.242;10.280;2022-08-23T04:15:21;101397.00;;;16.60
25514;BMP180;48128;54.242;10.280;2022-08-23T04:17:48;101395.00;;;16.60
25514;BMP180;48128;54.242;10.280;2022-08-23T04:20:15;101400.00;;;16.60
25514;BMP180;48128;54.242;10.280;2022-08-23T04:22:43;101399.00;;;16.60
25514;BMP180;48128;54.242;10.280;2022-08-23T04:25:13;101404.00;;;16.60
25514;BMP180;48128;54.242;10.280;2022-08-23T04:27:59;101413.00;;;16.60
25514;BMP180;48128;54.242;10.280;2022-08-23T04:30:27;101410.00;;;16.60
25514;BMP180;48128;54.242;10.280;2022-08-23T04:32:54;101420.00;;;16.60
25514;BMP180;48128;54.242;10.280;2022-08-23T04:35:21;101417.00;;;16.60
25514;BMP180;48128;54.242;10.280;2022-08-23T04:37:48;101425.00;;;16.70
25514;BMP180;48128;54.242;10.280;2022-08-23T04:40:15;101424.00;;;16.70
25514;BMP180;48128;54.242;10.280;2022-08-23T04:43:00;101422.00;;;16.70
25514;BMP180;48128;54.242;10.280;2022-08-23T04:45:27;101424.00;;;16.70
25514;BMP180;48128;54.242;10.280;2022-08-23T04:47:54;101419.00;;;16.70
25514;BMP180;48128;54.242;10.280;2022-08-23T04:50:22;101425.00;;;16.70
25514;BMP180;48128;54.242;10.280;2022-08-23T04:52:49;101430.00;;;16.70
25514;BMP180;48128;54.242;10.280;2022-08-23T04:55:16;101425.00;;;16.70
25514;BMP180;48128;54.242;10.280;2022-08-23T04:57:43;101426.00;;;16.70
25514;BMP180;48128;54.242;10.280;2022-08-23T05:00:10;101434.00;;;16.80
25514;BMP180;48128;54.242;10.280;2022-08-23T05:02:39;101432.00;;;16.80
25514;BMP180;48128;54.242;10.280;2022-08-23T05:05:06;101430.00;;;16.80
25514;BMP180;48128;54.242;10.280;2022-08-23T05:07:35;101431.00;;;16.80
25514;BMP180;48128;54.242;10.280;2022-08-23T05:10:10;101434.00;;;16.90
25514;BMP180;48128;54.242;10.280;2022-08-23T05:12:39;101437.00;;;17.00
25514;BMP180;48128;54.242;10.280;2022-08-23T05:15:07;101436.00;;;17.00
25514;BMP180;48128;54.242;10.280;2022-08-23T05:17:35;101447.00;;;17.10
25514;BMP180;48128;54.242;10.280;2022-08-23T05:20:06;101450.00;;;17.20
25514;BMP180;48128;54.242;10.280;2022-08-23T05:22:38;101464.00;;;17.30
25514;BMP180;48128;54.242;10.280;2022-08-23T05:25:07;101459.00;;;17.40
25514;BMP180;48128;54.242;10.280;2022-08-23T05:27:34;101463.00;;;17.40
25514;BMP180;48128;54.242;10.280;2022-08-23T05:30:02;101460.00;;;17.50
25514;BMP180;48128;54.242;10.280;2022-08-23T05:32:29;101457.00;;;17.60
25514;BMP180;48128;54.242;10.280;2022-08-23T05:34:59;101466.00;;;17.70
25514;BMP180;48128;54.242;10.280;2022-08-23T05:37:28;101471.00;;;17.70
25514;BMP180;48128;54.242;10.280;2022-08-23T05:39:55;101470.00;;;17.80
25514;BMP180;48128;54.242;10.280;2022-08-23T05:42:22;101478.00;;;17.80
25514;BMP180;48128;54.242;10.280;2022-08-23T05:44:49;101488.00;;;17.80
25514;BMP180;48128;54.242;10.280;2022-08-23T05:47:16;101497.00;;;17.90
25514;BMP180;48128;54.242;10.280;2022-08-23T05:49:50;101506.00;;;17.90
25514;BMP180;48128;54.242;10.280;2022-08-23T05:52:17;101512.00;;;17.90
25514;BMP180;48128;54.242;10.280;2022-08-23T05:54:44;101524.00;;;18.00
25514;BMP180;48128;54.242;10.280;2022-08-23T05:57:11;101515.00;;;18.00
25514;BMP180;48128;54.242;10.280;2022-08-23T05:59:37;101527.00;;;18.00
25514;BMP180;48128;54.242;10.280;2022-08-23T06:02:05;101528.00;;;18.00
25514;BMP180;48128;54.242;10.280;2022-08-23T06:04:32;101537.00;;;18.10
25514;BMP180;48128;54.242;10.280;2022-08-23T06:06:59;101520.00;;;18.10
25514;BMP180;48128;54.242;10.280;2022-08-23T06:09:26;101539.00;;;18.20
25514;BMP180;48128;54.242;10.280;2022-08-23T06:11:53;101546.00;;;18.30
25514;BMP180;48128;54.242;10.280;2022-08-23T06:14:20;101548.00;;;18.40
25514;BMP180;48128;54.242;10.280;2022-08-23T06:16:48;101552.00;;;18.50
25514;BMP180;48128;54.242;10.280;2022-08-23T06:19:21;101555.00;;;18.60
25514;BMP180;48128;54.242;10.280;2022-08-23T06:21:49;101563.00;;;18.80
25514;BMP180;48128;54.242;10.280;2022-08-23T06:24:17;101559.00;;;18.90
25514;BMP180;48128;54.242;10.280;2022-08-23T06:26:45;101578.00;;;19.00
25514;BMP180;48128;54.242;10.280;2022-08-23T06:29:14;101591.00;;;19.00
25514;BMP180;48128;54.242;10.280;2022-08-23T06:31:44;101576.00;;;19.10
25514;BMP180;48128;54.242;10.280;2022-08-23T06:34:24;101586.00;;;19.20
25514;BMP180;48128;54.242;10.280;2022-08-23T06:36:54;101587.00;;;19.20
25514;BMP180;48128;54.242;10.280;2022-08-23T06:39:25;101587.00;;;19.30
25514;BMP180;48128;54.242;10.280;2022-08-23T06:41:56;101589.00;;;19.40
25514;BMP180;48128;54.242;10.280;2022-08-23T06:44:24;101585.00;;;19.50
25514;BMP180;48128;54.242;10.280;2022-08-23T06:46:51;101581.00;;;19.70
25514;BMP180;48128;54.242;10.280;2022-08-23T06:49:17;101579.00;;;19.70
25514;BMP180;48128;54.242;10.280;2022-08-23T06:51:48;101578.00;;;19.80
25514;BMP180;48128;54.242;10.280;2022-08-23T06:54:20;101599.00;;;19.90
25514;BMP180;48128;54.242;10.280;2022-08-23T06:56:48;101582.00;;;20.00
25514;BMP180;48128;54.242;10.280;2022-08-23T06:59:15;101597.00;;;20.10
25514;BMP180;48128;54.242;10.280;2022-08-23T07:01:46;101595.00;;;20.20
25514;BMP180;48128;54.242;10.280;2022-08-23T07:04:17;101579.00;;;20.30
25514;BMP180;48128;54.242;10.280;2022-08-23T07:06:45;101599.00;;;20.30
25514;BMP180;48128;54.242;10.280;2022-08-23T07:09:12;101601.00;;;20.40
25514;BMP180;48128;54.242;10.280;2022-08-23T07:11:39;101589.00;;;20.60
25514;BMP180;48128;54.242;10.280;2022-08-23T07:14:10;101582.00;;;20.70
25514;BMP180;48128;54.242;10.280;2022-08-23T07:16:42;101583.00;;;20.70
25514;BMP180;48128;54.242;10.280;2022-08-23T07:19:11;101608.00;;;20.70
25514;BMP180;48128;54.242;10.280;2022-08-23T07:21:39;101582.00;;;20.80
25514;BMP180;48128;54.242;10.280;2022-08-23T07:24:07;101604.00;;;20.90
25514;BMP180;48128;54.242;10.280;2022-08-23T07:26:34;101603.00;;;20.90
25514;BMP180;48128;54.242;10.280;2022-08-23T07:29:03;101601.00;;;21.10
25514;BMP180;48128;54.242;10.280;2022-08-23T07:31:33;101608.00;;;21.20
25514;BMP180;48128;54.242;10.280;2022-08-23T07:34:03;101606.00;;;21.20
25514;BMP180;48128;54.242;10.280;2022-08-23T07:36:31;101640.00;;;21.20
25514;BMP180;48128;54.242;10.280;2022-08-23T07:38:59;101605.00;;;21.20
25514;BMP180;48128;54.242;10.280;2022-08-23T07:41:28;101630.00;;;21.20
25514;BMP180;48128;54.242;10.280;2022-08-23T07:43:59;101609.00;;;21.20
25514;BMP180;48128;54.242;10.280;2022-08-23T07:46:30;101621.00;;;21.30
25514;BMP180;48128;54.242;10.280;2022-08-23T07:48:59;101623.00;;;21.30
25514;BMP180;48128;54.242;10.280;2022-08-23T07:51:28;101607.00;;;21.40
25514;BMP180;48128;54.242;10.280;2022-08-23T07:53:56;101629.00;;;21.40
25514;BMP180;48128;54.242;10.280;2022-08-23T07:56:23;101636.00;;;21.40
25514;BMP180;48128;54.242;10.280;2022-08-23T07:58:50;101623.00;;;21.50
25514;BMP180;48128;54.242;10.280;2022-08-23T08:01:23;101612.00;;;21.70
25514;BMP180;48128;54.242;10.280;2022-08-23T08:03:53;101657.00;;;21.80
25514;BMP180;48128;54.242;10.280;2022-08-23T08:06:27;101647.00;;;21.80
25514;BMP180;48128;54.242;10.280;2022-08-23T08:08:54;101642.00;;;21.90
25514;BMP180;48128;54.242;10.280;2022-08-23T08:11:24;101646.00;;;22.00
25514;BMP180;48128;54.242;10.280;2022-08-23T08:14:00;101643.00;;;22.00
25514;BMP180;48128;54.242;10.280;2022-08-23T08:16:30;101670.00;;;22.10
25514;BMP180;48128;54.242;10.280;2022-08-23T08:18:59;101618.00;;;22.10
25514;BMP180;48128;54.242;10.280;2022-08-23T08:21:27;101630.00;;;22.10
25514;BMP180;48128;54.242;10.280;2022-08-23T08:23:55;101652.00;;;22.10
25514;BMP180;48128;54.242;10.280;2022-08-23T08:26:24;101644.00;;;22.20
25514;BMP180;48128;54.242;10.280;2022-08-23T08:28:51;101654.00;;;22.20
25514;BMP180;48128;54.242;10.280;2022-08-23T08:31:18;101647.00;;;22.30
25514;BMP180;48128;54.242;10.280;2022-08-23T08:33:45;101640.00;;;22.30
25514;BMP180;48128;54.242;10.280;2022-08-23T08:36:32;101648.00;;;22.40
25514;BMP180;48128;54.242;10.280;2022-08-23T08:39:04;101637.00;;;22.40
25514;BMP180;48128;54.242;10.280;2022-08-23T08:44:22;101633.00;;;22.40
25514;BMP180;48128;54.242;10.280;2022-08-23T08:46:53;101644.00;;;22.50
25514;BMP180;48128;54.242;10.280;2022-08-23T08:54:29;101641.00;;;22.80
25514;BMP180;48128;54.242;10.280;2022-08-23T08:56:58;101672.00;;;23.00
25514;BMP180;48128;54.242;10.280;2022-08-23T08:59:41;101678.00;;;23.10
25514;BMP180;48128;54.242;10.280;2022-08-23T09:02:16;101680.00;;;23.10
25514;BMP180;48128;54.242;10.280;2022-08-23T09:05:06;101681.00;;;23.20
25514;BMP180;48128;54.242;10.280;2022-08-23T09:14:02;101661.00;;;23.50
25514;BMP180;48128;54.242;10.280;2022-08-23T09:16:50;101695.00;;;23.80
25514;BMP180;48128;54.242;10.280;2022-08-23T09:19:19;101688.00;;;24.00
25514;BMP180;48128;54.242;10.280;2022-08-23T09:21:58;101696.00;;;24.20
25514;BMP180;48128;54.242;10.280;2022-08-23T09:24:27;101719.00;;;24.40
25514;BMP180;48128;54.242;10.280;2022-08-23T09:26:54;101702.00;;;24.40
25514;BMP180;48128;54.242;10.280;2022-08-23T09:29:27;101708.00;;;24.50
25514;BMP180;48128;54.242;10.280;2022-08-23T09:32:00;101700.00;;;24.60
25514;BMP180;48128;54.242;10.280;2022-08-23T09:39:37;101682.00;;;24.70
25514;BMP180;48128;54.242;10.280;2022-08-23T09:42:30;101682.00;;;24.80
25514;BMP180;48128;54.242;10.280;2022-08-23T09:44:57;101697.00;;;24.90
25514;BMP180;48128;54.242;10.280;2022-08-23T09:47:33;101693.00;;;25.00
25514;BMP180;48128;54.242;10.280;2022-08-23T09:50:31;101682.00;;;25.20
25514;BMP180;48128;54.242;10.280;2022-08-23T09:53:02;101682.00;;;25.50
25514;BMP180;48128;54.242;10.280;2022-08-23T09:58:46;101677.00;;;25.40
25514;BMP180;48128;54.242;10.280;2022-08-23T10:01:22;101673.00;;;25.40
25514;BMP180;48128;54.242;10.280;2022-08-23T10:04:07;101685.00;;;25.40
25514;BMP180;48128;54.242;10.280;2022-08-23T10:06:34;101665.00;;;25.40
25514;BMP180;48128;54.242;10.280;2022-08-23T10:09:03;101671.00;;;25.50
25514;BMP180;48128;54.242;10.280;2022-08-23T10:11:38;101678.00;;;25.70
25514;BMP180;48128;54.242;10.280;2022-08-23T10:14:13;101679.00;;;25.70
25514;BMP180;48128;54.242;10.280;2022-08-23T10:19:47;101684.00;;;25.80
25514;BMP180;48128;54.242;10.280;2022-08-23T10:24:54;101683.00;;;26.00
25514;BMP180;48128;54.242;10.280;2022-08-23T10:28:03;101667.00;;;26.00
25514;BMP180;48128;54.242;10.280;2022-08-23T10:33:51;101677.00;;;26.40
25514;BMP180;48128;54.242;10.280;2022-08-23T10:38:56;101675.00;;;26.50
25514;BMP180;48128;54.242;10.280;2022-08-23T10:41:46;101673.00;;;26.50
25514;BMP180;48128;54.242;10.280;2022-08-23T10:44:26;101686.00;;;26.60
25514;BMP180;48128;54.242;10.280;2022-08-23T10:47:55;101695.00;;;26.60
25514;BMP180;48128;54.242;10.280;2022-08-23T10:50:06;101687.00;;;26.60
25514;BMP180;48128;54.242;10.280;2022-08-23T10:53:00;101683.00;;;26.50
25514;BMP180;48128;54.242;10.280;2022-08-23T10:55:35;101677.00;;;26.50
25514;BMP180;48128;54.242;10.280;2022-08-23T10:58:23;101685.00;;;26.50
25514;BMP180;48128;54.242;10.280;2022-08-23T11:00:55;101677.00;;;26.60
25514;BMP180;48128;54.242;10.280;2022-08-23T11:09:04;101682.00;;;27.00
25514;BMP180;48128;54.242;10.280;2022-08-23T11:11:45;101678.00;;;27.00
25514;BMP180;48128;54.242;10.280;2022-08-23T11:19:54;101676.00;;;26.70
25514;BMP180;48128;54.242;10.280;2022-08-23T11:22:33;101673.00;;;26.90
25514;BMP180;48128;54.242;10.280;2022-08-23T11:25:44;101680.00;;;26.80
25514;BMP180;48128;54.242;10.280;2022-08-23T11:30:48;101658.00;;;26.90
25514;BMP180;48128;54.242;10.280;2022-08-23T11:33:24;101662.00;;;27.10
25514;BMP180;48128;54.242;10.280;2022-08-23T11:36:14;101670.00;;;27.20
25514;BMP180;48128;54.242;10.280;2022-08-23T11:48:42;101680.00;;;27.10
25514;BMP180;48128;54.242;10.280;2022-08-23T12:00:12;101671.00;;;27.40
25514;BMP180;48128;54.242;10.280;2022-08-23T12:03:24;101700.00;;;27.40
25514;BMP180;48128;54.242;10.280;2022-08-23T12:21:23;101664.00;;;27.30
25514;BMP180;48128;54.242;10.280;2022-08-23T12:24:05;101665.00;;;27.40
25514;BMP180;48128;54.242;10.280;2022-08-23T12:37:30;101688.00;;;27.20
25514;BMP180;48128;54.242;10.280;2022-08-23T12:40:01;101681.00;;;27.40
25514;BMP180;48128;54.242;10.280;2022-08-23T12:42:32;101678.00;;;27.30
25514;BMP180;48128;54.242;10.280;2022-08-23T12:45:12;101699.00;;;27.30
25514;BMP180;48128;54.242;10.280;2022-08-23T12:47:42;101670.00;;;27.30
25514;BMP180;48128;54.242;10.280;2022-08-23T12:53:11;101688.00;;;27.30
25514;BMP180;48128;54.242;10.280;2022-08-23T12:55:43;101706.00;;;27.10
25514;BMP180;48128;54.242;10.280;2022-08-23T12:58:12;101690.00;;;27.10
25514;BMP180;48128;54.242;10.280;2022-08-23T13:00:55;101682.00;;;27.00
25514;BMP180;48128;54.242;10.280;2022-08-23T13:03:27;101675.00;;;26.90
25514;BMP180;48128;54.242;10.280;2022-08-23T13:06:01;101665.00;;;26.80
25514;BMP180;48128;54.242;10.280;2022-08-23T13:08:33;101655.00;;;26.70
25514;BMP180;48128;54.242;10.280;2022-08-23T13:11:04;101647.00;;;26.60
25514;BMP180;48128;54.242;10.280;2022-08-23T13:13:36;101648.00;;;26.40
25514;BMP180;48128;54.242;10.280;2022-08-23T13:16:41;101659.00;;;26.40
25514;BMP180;48128;54.242;10.280;2022-08-23T13:19:16;101665.00;;;26.60
25514;BMP180;48128;54.242;10.280;2022-08-23T13:21:43;101659.00;;;26.60
25514;BMP180;48128;54.242;10.280;2022-08-23T13:27:48;101655.00;;;26.80
25514;BMP180;48128;54.242;10.280;2022-08-23T13:35:47;101661.00;;;26.70
25514;BMP180;48128;54.242;10.280;2022-08-23T13:38:29;101683.00;;;26.60
25514;BMP180;48128;54.242;10.280;2022-08-23T13:41:05;101650.00;;;26.40
25514;BMP180;48128;54.242;10.280;2022-08-23T13:43:47;101645.00;;;26.40
25514;BMP180;48128;54.242;10.280;2022-08-23T13:46:24;101640.00;;;26.40
25514;BMP180;48128;54.242;10.280;2022-08-23T13:49:01;101636.00;;;26.60
25514;BMP180;48128;54.242;10.280;2022-08-23T13:51:41;101661.00;;;26.80
25514;BMP180;48128;54.242;10.280;2022-08-23T13:54:12;101656.00;;;26.80
25514;BMP180;48128;54.242;10.280;2022-08-23T13:56:46;101629.00;;;26.80
25514;BMP180;48128;54.242;10.280;2022-08-23T13:59:27;101657.00;;;26.80
25514;BMP180;48128;54.242;10.280;2022-08-23T14:02:08;101643.00;;;26.90
25514;BMP180;48128;54.242;10.280;2022-08-23T14:04:37;101668.00;;;26.80
25514;BMP180;48128;54.242;10.280;2022-08-23T14:07:04;101655.00;;;26.70
25514;BMP180;48128;54.242;10.280;2022-08-23T14:09:32;101636.00;;;26.60
25514;BMP180;48128;54.242;10.280;2022-08-23T14:12:07;101649.00;;;26.60
25514;BMP180;48128;54.242;10.280;2022-08-23T14:14:39;101644.00;;;26.60
25514;BMP180;48128;54.242;10.280;2022-08-23T14:17:06;101635.00;;;26.70
25514;BMP180;48128;54.242;10.280;2022-08-23T14:19:38;101649.00;;;26.60
25514;BMP180;48128;54.242;10.280;2022-08-23T14:22:25;101647.00;;;26.50
25514;BMP180;48128;54.242;10.280;2022-08-23T14:24:52;101663.00;;;26.50
25514;BMP180;48128;54.242;10.280;2022-08-23T14:27:19;101654.00;;;26.30
25514;BMP180;48128;54.242;10.280;2022-08-23T14:29:46;101648.00;;;26.20
25514;BMP180;48128;54.242;10.280;2022-08-23T14:32:12;101651.00;;;26.20
25514;BMP180;48128;54.242;10.280;2022-08-23T14:34:39;101639.00;;;26.20
25514;BMP180;48128;54.242;10.280;2022-08-23T14:37:06;101634.00;;;26.10
25514;BMP180;48128;54.242;10.280;2022-08-23T14:39:53;101634.00;;;26.10
25514;BMP180;48128;54.242;10.280;2022-08-23T14:42:21;101630.00;;;26.10
25514;BMP180;48128;54.242;10.280;2022-08-23T14:44:48;101635.00;;;26.10
25514;BMP180;48128;54.242;10.280;2022-08-23T14:47:15;101637.00;;;26.00
25514;BMP180;48128;54.242;10.280;2022-08-23T14:49:42;101630.00;;;26.00
25514;BMP180;48128;54.242;10.280;2022-08-23T14:52:10;101618.00;;;26.00
25514;BMP180;48128;54.242;10.280;2022-08-23T14:54:38;101637.00;;;25.90
25514;BMP180;48128;54.242;10.280;2022-08-23T14:57:05;101617.00;;;25.80
25514;BMP180;48128;54.242;10.280;2022-08-23T14:59:32;101621.00;;;25.80
25514;BMP180;48128;54.242;10.280;2022-08-23T15:01:59;101604.00;;;25.80
25514;BMP180;48128;54.242;10.280;2022-08-23T15:04:26;101599.00;;;25.80
25514;BMP180;48128;54.242;10.280;2022-08-23T15:07:01;101616.00;;;25.70
25514;BMP180;48128;54.242;10.280;2022-08-23T15:09:49;101583.00;;;25.60
25514;BMP180;48128;54.242;10.280;2022-08-23T15:12:17;101613.00;;;25.50
25514;BMP180;48128;54.242;10.280;2022-08-23T15:15:09;101618.00;;;25.40
25514;BMP180;48128;54.242;10.280;2022-08-23T15:17:46;101595.00;;;25.50
25514;BMP180;48128;54.242;10.280;2022-08-23T15:20:13;101603.00;;;25.40
25514;BMP180;48128;54.242;10.280;2022-08-23T15:22:41;101619.00;;;25.30
25514;BMP180;48128;54.242;10.280;2022-08-23T15:25:11;101593.00;;;25.20
25514;BMP180;48128;54.242;10.280;2022-08-23T15:27:37;101587.00;;;25.20
25514;BMP180;48128;54.242;10.280;2022-08-23T15:30:05;101592.00;;;25.10
25514;BMP180;48128;54.242;10.280;2022-08-23T15:32:32;101586.00;;;25.00
25514;BMP180;48128;54.242;10.280;2022-08-23T15:35:03;101604.00;;;25.00
25514;BMP180;48128;54.242;10.280;2022-08-23T15:37:30;101564.00;;;25.00
25514;BMP180;48128;54.242;10.280;2022-08-23T15:39:57;101601.00;;;25.10
25514;BMP180;48128;54.242;10.280;2022-08-23T15:42:24;101595.00;;;25.00
25514;BMP180;48128;54.242;10.280;2022-08-23T15:44:51;101595.00;;;24.90
25514;BMP180;48128;54.242;10.280;2022-08-23T15:47:23;101598.00;;;24.80
25514;BMP180;48128;54.242;10.280;2022-08-23T15:49:50;101591.00;;;24.70
25514;BMP180;48128;54.242;10.280;2022-08-23T15:52:18;101589.00;;;24.60
25514;BMP180;48128;54.242;10.280;2022-08-23T15:54:46;101588.00;;;24.60